Fairfield, Utah
Current Conditions -  °F | °C
As of 11:15 PM on Sunday 21 Dec 2014 (Local Time) from KPVU Reporting Station
Overcast Overcast  
Wind Chill: 36°   Ceiling: 3800
Heat Index: 41°   Visibility: 10mi
Dew Point: 37°   Wind: 7mph
Humidity: 87%   Direction: 320°NW
Pressure: 30.05"   Gusts: NA
Location:  40.1341°N, 112.043°W
Report Text: KPVU 220615Z AUTO 32006KT 10SM OVC038 05/03 A3005 RMK AO1
Loading
Personal Weather Stations






























Interactive Weather Map New forecast layout! Learn more

10-Day Weather Forecast

Advertisements
Track Severe Weather on mobile